Terminal Aerodrome Forecast
Issued by NWS St Louis, MO

Home | Current Version | Previous Version | Text Only | Print | Product List | Glossary On
Versions: 1 2 3 4 5 6 7 8 9 10 11 12 13 14 15 16 17 18 19 20 21 22 23 24
110
FTUS43 KLSX 082328
TAFSTL
TAF
KSTL 082328Z 0900/1006 31018G29KT 3SM -SN OVC035
     FM090200 31018G28KT 6SM -SN OVC030
     FM091600 31017KT P6SM OVC025
     FM092200 31017KT P6SM SCT030=

USA.gov is the U.S. government's official web portal to all federal, state and local government web resources and services.